Royal Melbourne — WDC2865 — position and weather

sailwx.info

Track history (hours):
 
Tides and Currents Weather Stations Pressure Air Temp Water Temp Dewpoint Dewpoint Depression Visibility Wind Speed Wind Dir Waves Ship Positions

Royal Melbourne

Owner: Harley Marine Services, Inc, Seattle, WA. More information available from US FCC via Universal Licensing System and Coast Guard Vessel Documentation Center.

Last reported at 2017-Sep-22 01:52 UTC. Time now 2017-Sep-22 18:50 UTC.
Position N 37°57' W 122°26'.

Length 22 m; draft 3 m.

Type: Tug. MMSI: 366998830.

Date/timePositionNaut miles runAvg speedWind from/ knotsBaromVisibWave heightAir tempDewpointWater temp
2017-Sep-22 01:52N 37°57' W 122°26'2 6.2
2017-Sep-22 01:30N 37°55' W 122°25'3 6.8
2017-Sep-22 01:00N 37°52' W 122°24'5 9.2
2017-Sep-22 00:30N 37°48' W 122°20'3 5.4
2017-Sep-22 00:00N 37°48' W 122°17'0 0.0
2017-Sep-21 23:28N 37°48' W 122°17'0 0.0
2017-Sep-21 22:58N 37°48' W 122°17'0 0.0
2017-Sep-21 22:19N 37°48' W 122°17'0 0.0
2017-Sep-21 21:58N 37°48' W 122°17'0 0.0
2017-Sep-21 21:25N 37°48' W 122°17'0 0.0
2017-Sep-21 20:58N 37°48' W 122°17'0 0.0
2017-Sep-21 20:28N 37°48' W 122°17'0 0.0
2017-Sep-21 19:58N 37°48' W 122°17'0 0.0
2017-Sep-21 19:28N 37°48' W 122°17'0 0.0
2017-Sep-21 18:58N 37°48' W 122°17'0 0.0
2017-Sep-21 18:28N 37°48' W 122°17'0 0.0
2017-Sep-21 17:49N 37°48' W 122°17'0 0.0
2017-Sep-21 17:19N 37°48' W 122°17'0 0.0
2017-Sep-21 16:52N 37°48' W 122°17'0 0.0
2017-Sep-21 16:25N 37°48' W 122°17'0 0.0
2017-Sep-21 15:55N 37°48' W 122°17'0 0.0
2017-Sep-21 15:25N 37°48' W 122°17'0 0.0
2017-Sep-21 14:58N 37°48' W 122°17'0 0.0
2017-Sep-21 14:31N 37°48' W 122°17'0 0.0
2017-Sep-21 14:01N 37°48' W 122°17'0 0.0
2017-Sep-21 13:27N 37°48' W 122°17'0 0.0
2017-Sep-21 13:00N 37°48' W 122°17'0 0.0
2017-Sep-21 12:28N 37°48' W 122°17'0 0.0
2017-Sep-21 12:00N 37°48' W 122°17'0 0.0
2017-Sep-21 11:28N 37°48' W 122°17'0 0.0
2017-Sep-21 11:00N 37°48' W 122°17'0 0.0
2017-Sep-21 10:30N 37°48' W 122°17'0 0.0
2017-Sep-21 10:00N 37°48' W 122°17'0 0.0
2017-Sep-21 09:30N 37°48' W 122°17'0 0.0
2017-Sep-21 08:57N 37°48' W 122°17'0 0.0
2017-Sep-21 08:30N 37°48' W 122°17'0 0.0
2017-Sep-21 08:00N 37°48' W 122°17'0 0.0
2017-Sep-21 07:30N 37°48' W 122°17'0 0.0
2017-Sep-21 07:00N 37°48' W 122°17'3 5.6
2017-Sep-21 06:30N 37°48' W 122°21'3 6.3
2017-Sep-21 06:00N 37°45' W 122°21'1 1.3
2017-Sep-21 05:31N 37°44' W 122°21'0 0.0
2017-Sep-21 04:59N 37°44' W 122°21'0 0.0
2017-Sep-21 04:23N 37°44' W 122°21'0 0.0
2017-Sep-21 03:59N 37°44' W 122°21'0 0.1
2017-Sep-21 03:29N 37°44' W 122°21'0 0.1
2017-Sep-21 02:59N 37°44' W 122°21'0 0.3
2017-Sep-21 02:29N 37°44' W 122°21'0 0.1
2017-Sep-21 01:59N 37°44' W 122°21'0 0.0
2017-Sep-21 01:26N 37°44' W 122°21'0 0.0
2017-Sep-21 00:59N 37°44' W 122°21'0 0.5
2017-Sep-21 00:30N 37°45' W 122°21'2 3.4
2017-Sep-21 00:01N 37°46' W 122°21'0 0.0
2017-Sep-20 23:28N 37°46' W 122°21'0 0.0
2017-Sep-20 22:58N 37°46' W 122°21'0 0.0
2017-Sep-20 22:28N 37°46' W 122°21'0 0.0
2017-Sep-20 21:58N 37°46' W 122°21'0 0.2
2017-Sep-20 21:31N 37°46' W 122°21'0 0.3
2017-Sep-20 20:58N 37°46' W 122°21'0 0.1
2017-Sep-20 20:31N 37°46' W 122°21'0 0.1
2017-Sep-20 20:01N 37°46' W 122°21'2 4.8
2017-Sep-20 19:30N 37°48' W 122°23'1 1.5
2017-Sep-20 19:00N 37°48' W 122°24'0 0.0
2017-Sep-20 18:30N 37°48' W 122°24'0 0.0
2017-Sep-20 18:00N 37°48' W 122°24'0 0.1
2017-Sep-20 17:30N 37°48' W 122°24'0 0.0
2017-Sep-20 17:00N 37°48' W 122°24'0 0.1
2017-Sep-20 16:30N 37°48' W 122°24'0 0.1
2017-Sep-20 16:01N 37°48' W 122°24'0 0.0
2017-Sep-20 15:30N 37°48' W 122°24'0 0.0
2017-Sep-20 14:58N 37°48' W 122°24'0 0.4
2017-Sep-20 14:00N 37°48' W 122°24'2 3.8
2017-Sep-20 13:30N 37°48' W 122°21'3 5.6
2017-Sep-20 13:00N 37°47' W 122°18'1 1.0
2017-Sep-20 12:29N 37°48' W 122°17'0 0.0
2017-Sep-20 11:59N 37°48' W 122°17'0 0.0
2017-Sep-20 11:29N 37°48' W 122°17'0 0.0
2017-Sep-20 10:59N 37°48' W 122°17'0 0.0
2017-Sep-20 10:29N 37°48' W 122°17'0 0.0
2017-Sep-20 09:56N 37°48' W 122°17'0 0.0
2017-Sep-20 09:29N 37°48' W 122°17'0 0.0
2017-Sep-20 08:59N 37°48' W 122°17'0 0.0
2017-Sep-20 08:29N 37°48' W 122°17'0 0.0
2017-Sep-20 07:59N 37°48' W 122°17'0 0.0
2017-Sep-20 07:29N 37°48' W 122°17'0 0.0
2017-Sep-20 06:59N 37°48' W 122°17'0 0.0
2017-Sep-20 06:29N 37°48' W 122°17'0 0.0
2017-Sep-20 05:59N 37°48' W 122°17'0 0.0
2017-Sep-20 05:29N 37°48' W 122°17'0 0.0
2017-Sep-20 04:59N 37°48' W 122°17'0 0.0
2017-Sep-20 04:29N 37°48' W 122°17'0 0.0
2017-Sep-20 03:59N 37°48' W 122°17'0 0.0
2017-Sep-20 03:29N 37°48' W 122°17'0 0.0
2017-Sep-20 02:59N 37°48' W 122°17'0 0.0
2017-Sep-20 02:29N 37°48' W 122°17'0 0.0
2017-Sep-20 01:59N 37°48' W 122°17'0 0.0
2017-Sep-20 01:26N 37°48' W 122°17'0 0.0
2017-Sep-20 00:59N 37°48' W 122°17'0 0.0
2017-Sep-20 00:29N 37°48' W 122°17'0 0.0
2017-Sep-19 23:58N 37°48' W 122°17'0 0.0
2017-Sep-19 23:28N 37°48' W 122°17'0 0.0
2017-Sep-19 22:59N 37°48' W 122°17'0 0.0
2017-Sep-19 22:28N 37°48' W 122°17'0 0.0
2017-Sep-19 21:58N 37°48' W 122°17'0 0.7
2017-Sep-19 21:30N 37°48' W 122°17'3 5.7
2017-Sep-19 21:00N 37°47' W 122°21'1 1.6
2017-Sep-19 20:30N 37°46' W 122°21'0 0.3
2017-Sep-19 20:00N 37°46' W 122°21'0 0.1
2017-Sep-19 19:30N 37°46' W 122°21'0 0.1
2017-Sep-19 18:57N 37°46' W 122°21'0 0.0
2017-Sep-19 18:31N 37°46' W 122°21'0 0.1
2017-Sep-19 17:54N 37°46' W 122°21'0 0.0
2017-Sep-19 17:30N 37°46' W 122°21'0 0.1
2017-Sep-19 17:00N 37°46' W 122°21'0 0.1
2017-Sep-19 16:30N 37°46' W 122°21'0 0.0
2017-Sep-19 16:00N 37°46' W 122°21'0 0.1
2017-Sep-19 15:27N 37°46' W 122°21'0 0.1
2017-Sep-19 15:00N 37°46' W 122°21'0 0.0
2017-Sep-19 14:30N 37°46' W 122°21'0 0.4
2017-Sep-19 13:57N 37°46' W 122°21'0 0.2
2017-Sep-19 13:30N 37°46' W 122°21'0 0.0
2017-Sep-19 13:00N 37°46' W 122°21'0 0.0
2017-Sep-19 12:30N 37°46' W 122°21'0 0.0
2017-Sep-19 12:00N 37°46' W 122°21'1 1.7
2017-Sep-19 11:30N 37°47' W 122°22'2 4.9
2017-Sep-19 11:00N 37°49' W 122°23'3 6.6
2017-Sep-19 10:30N 37°52' W 122°24'2 4.9
2017-Sep-19 10:00N 37°54' W 122°23'1 1.7
2017-Sep-19 09:28N 37°55' W 122°22'0 0.0
2017-Sep-19 08:58N 37°55' W 122°22'0 0.0
2017-Sep-19 08:28N 37°55' W 122°22'0 0.0
2017-Sep-19 07:58N 37°55' W 122°22'0 0.0
2017-Sep-19 07:28N 37°55' W 122°22'0 0.0
2017-Sep-19 06:52N 37°55' W 122°22'0 0.0
2017-Sep-19 06:28N 37°55' W 122°22'0 0.0
2017-Sep-19 05:58N 37°55' W 122°22'0 0.0
2017-Sep-19 05:28N 37°55' W 122°22'0 0.0
2017-Sep-19 04:58N 37°55' W 122°22'0 0.0
2017-Sep-19 04:22N 37°55' W 122°22'0 0.0
2017-Sep-19 03:40N 37°55' W 122°22'0 0.0
2017-Sep-19 03:25N 37°55' W 122°22'0 0.0
2017-Sep-19 02:52N 37°55' W 122°22'0 0.0
2017-Sep-19 02:28N 37°55' W 122°22'0 0.0
2017-Sep-19 01:58N 37°55' W 122°22'0 0.0
2017-Sep-19 01:22N 37°55' W 122°22'0 0.0
2017-Sep-19 00:58N 37°55' W 122°22'0 0.0
2017-Sep-19 00:28N 37°55' W 122°22'0 0.0
2017-Sep-18 23:58N 37°55' W 122°22'0 0.0
2017-Sep-18 23:27N 37°55' W 122°22'0 0.0
2017-Sep-18 22:57N 37°55' W 122°22'0 0.0
2017-Sep-18 22:27N 37°55' W 122°22'0 0.0
2017-Sep-18 21:57N 37°55' W 122°22'0 0.0
2017-Sep-18 21:27N 37°55' W 122°22'0 0.0
2017-Sep-18 20:57N 37°55' W 122°22'0 0.0
2017-Sep-18 20:27N 37°55' W 122°22'0 0.0
2017-Sep-18 19:57N 37°55' W 122°22'0 0.0
2017-Sep-18 19:21N 37°55' W 122°22'0 0.0
2017-Sep-18 19:00N 37°55' W 122°22'0 0.0
2017-Sep-18 18:15N 37°55' W 122°22'0 0.0
2017-Sep-18 17:57N 37°55' W 122°22'0 0.0
2017-Sep-18 17:27N 37°55' W 122°22'0 0.0
2017-Sep-18 16:54N 37°55' W 122°22'0 0.0
2017-Sep-18 16:21N 37°55' W 122°22'0 0.0
2017-Sep-18 16:00N 37°55' W 122°22'0 0.0
2017-Sep-18 15:30N 37°55' W 122°22'0 0.0
2017-Sep-18 15:00N 37°55' W 122°22'0 0.0
2017-Sep-18 14:30N 37°55' W 122°22'0 0.0
2017-Sep-18 14:00N 37°55' W 122°22'0 0.0
2017-Sep-18 13:24N 37°55' W 122°22'0 0.0
2017-Sep-18 12:57N 37°55' W 122°22'0 0.4
2017-Sep-18 12:30N 37°55' W 122°22'3 5.0
2017-Sep-18 12:00N 37°54' W 122°25'4 7.4
2017-Sep-18 11:30N 37°50' W 122°22'4 8.6
2017-Sep-18 11:00N 37°48' W 122°18'1 2.0
2017-Sep-18 10:31N 37°48' W 122°17'0 0.0
2017-Sep-18 10:00N 37°48' W 122°17'0 0.0
2017-Sep-18 09:30N 37°48' W 122°17'0 0.0
2017-Sep-18 09:00N 37°48' W 122°17'0 0.0
2017-Sep-18 08:30N 37°48' W 122°17'0 0.0
2017-Sep-18 08:00N 37°48' W 122°17'0 0.0
2017-Sep-18 07:30N 37°48' W 122°17'0 0.0
2017-Sep-18 07:00N 37°48' W 122°17'0 0.0
2017-Sep-18 06:30N 37°48' W 122°17'0 0.0
2017-Sep-18 05:57N 37°48' W 122°17'0 0.0
2017-Sep-18 05:30N 37°48' W 122°17'0 0.0
2017-Sep-18 05:00N 37°48' W 122°17'0 0.0
2017-Sep-18 04:30N 37°48' W 122°17'0 0.0
2017-Sep-18 03:57N 37°48' W 122°17'0 0.0
2017-Sep-18 03:30N 37°48' W 122°17'0 0.0
2017-Sep-18 03:00N 37°48' W 122°17'0 0.0
2017-Sep-18 02:30N 37°48' W 122°17'0 0.0
2017-Sep-18 01:57N 37°48' W 122°17'0 0.0
2017-Sep-18 01:30N 37°48' W 122°17'0 0.0
2017-Sep-18 01:00N 37°48' W 122°17'0 0.0
2017-Sep-18 00:30N 37°48' W 122°17'0 0.0
2017-Sep-18 00:00N 37°48' W 122°17'0 0.0
2017-Sep-17 23:30N 37°48' W 122°17'0 0.0
2017-Sep-17 23:00N 37°48' W 122°17'0 0.0
2017-Sep-17 22:27N 37°48' W 122°17'0 0.0
2017-Sep-17 22:00N 37°48' W 122°17'0 0.0
2017-Sep-17 21:30N 37°48' W 122°17'0 0.0
2017-Sep-17 21:00N 37°48' W 122°17'0 0.0
2017-Sep-17 20:30N 37°48' W 122°17'0 0.0
2017-Sep-17 20:00N 37°48' W 122°17'0 0.0
2017-Sep-17 19:30N 37°48' W 122°17'0 0.0
2017-Sep-17 19:00N 37°48' W 122°17'0 0.0
2017-Sep-17 18:30N 37°48' W 122°17'0 0.0
2017-Sep-17 18:00N 37°48' W 122°17'0 0.0
2017-Sep-17 17:30N 37°48' W 122°17'0 0.0
2017-Sep-17 16:57N 37°48' W 122°17'0 0.0
2017-Sep-17 16:30N 37°48' W 122°17'0 0.0
2017-Sep-17 16:00N 37°48' W 122°17'0 0.0
2017-Sep-17 15:30N 37°48' W 122°17'0 0.0
2017-Sep-17 15:00N 37°48' W 122°17'0 0.0
2017-Sep-17 14:30N 37°48' W 122°17'0 0.0
2017-Sep-17 14:00N 37°48' W 122°17'1 2.4
2017-Sep-17 13:31N 37°48' W 122°19'4 8.9
2017-Sep-17 13:01N 37°51' W 122°23'5 9.3
2017-Sep-17 12:30N 37°55' W 122°25'6 9.9
2017-Sep-17 11:54N 38°01' W 122°24'410.6
2017-Sep-17 11:30N 38°03' W 122°19'3 6.1
2017-Sep-17 11:01N 38°03' W 122°16'0 0.0
2017-Sep-17 10:30N 38°03' W 122°16'0 0.0
2017-Sep-17 10:00N 38°03' W 122°16'0 0.0
2017-Sep-17 09:30N 38°03' W 122°16'0 0.0
2017-Sep-17 09:00N 38°03' W 122°16'0 0.0
2017-Sep-17 08:30N 38°03' W 122°16'0 0.0
2017-Sep-17 07:57N 38°03' W 122°16'0 0.0
2017-Sep-17 07:24N 38°03' W 122°16'0 0.0
2017-Sep-17 07:00N 38°03' W 122°16'0 0.0
2017-Sep-17 06:30N 38°03' W 122°16'0 0.0
2017-Sep-17 06:00N 38°03' W 122°16'0 0.0
2017-Sep-17 05:30N 38°03' W 122°16'0 0.0
2017-Sep-17 05:00N 38°03' W 122°16'0 0.0
2017-Sep-17 04:30N 38°03' W 122°16'0 0.0
2017-Sep-17 04:00N 38°03' W 122°16'0 0.0
2017-Sep-17 03:30N 38°03' W 122°16'0 0.0
2017-Sep-17 03:00N 38°03' W 122°16'0 0.0
2017-Sep-17 02:30N 38°03' W 122°16'0 0.0
2017-Sep-17 02:00N 38°03' W 122°16'0 0.0
2017-Sep-17 01:30N 38°03' W 122°16'0 0.0
2017-Sep-17 01:00N 38°03' W 122°16'0 0.0
2017-Sep-17 00:30N 38°03' W 122°16'0 0.0
2017-Sep-16 23:57N 38°03' W 122°16'0 0.0
2017-Sep-16 23:06N 38°03' W 122°16'0 0.0
2017-Sep-16 22:54N 38°03' W 122°16'0 0.0
2017-Sep-16 22:21N 38°03' W 122°16'0 0.0
2017-Sep-16 21:54N 38°03' W 122°16'0 0.0
2017-Sep-16 21:30N 38°03' W 122°16'0 0.0
2017-Sep-16 20:51N 38°03' W 122°16'0 0.0
2017-Sep-16 20:30N 38°03' W 122°16'0 0.0
2017-Sep-16 20:00N 38°03' W 122°16'0 0.0
2017-Sep-16 19:21N 38°03' W 122°16'0 0.0
2017-Sep-16 18:39N 38°03' W 122°16'0 0.0
2017-Sep-16 18:18N 38°03' W 122°16'0 0.0
2017-Sep-16 18:00N 38°03' W 122°16'0 0.0
2017-Sep-16 17:30N 38°03' W 122°16'0 0.0
2017-Sep-16 16:57N 38°03' W 122°16'0 0.0
2017-Sep-16 15:42N 38°03' W 122°16'0 0.0
2017-Sep-16 15:30N 38°03' W 122°16'8 4.8
2017-Sep-16 13:47N 37°59' W 122°25'2 6.9
2017-Sep-16 13:25N 37°57' W 122°26'3 6.8
2017-Sep-16 13:00N 37°55' W 122°24'2 3.8
2017-Sep-16 12:30N 37°55' W 122°22'0 0.0
2017-Sep-16 11:58N 37°55' W 122°22'0 0.0
2017-Sep-16 11:28N 37°55' W 122°22'0 0.0
2017-Sep-16 11:01N 37°55' W 122°22'0 0.0
2017-Sep-16 10:28N 37°55' W 122°22'0 0.0
2017-Sep-16 10:01N 37°55' W 122°22'0 0.0
2017-Sep-16 09:30N 37°55' W 122°22'0 0.0
2017-Sep-16 09:00N 37°55' W 122°22'0 0.0
2017-Sep-16 08:30N 37°55' W 122°22'0 0.0
2017-Sep-16 08:00N 37°55' W 122°22'0 0.0
2017-Sep-16 07:30N 37°55' W 122°22'0 0.0
2017-Sep-16 07:00N 37°55' W 122°22'0 0.0
2017-Sep-16 06:30N 37°55' W 122°22'0 0.0
2017-Sep-16 06:00N 37°55' W 122°22'0 0.0
2017-Sep-16 05:27N 37°55' W 122°22'0 0.0
2017-Sep-16 04:57N 37°55' W 122°22'0 0.0
2017-Sep-16 04:30N 37°55' W 122°22'0 0.0
2017-Sep-16 03:36N 37°55' W 122°22'0 0.1
2017-Sep-16 03:30N 37°55' W 122°22'0 0.0
2017-Sep-16 03:00N 37°55' W 122°22'0 0.0
2017-Sep-16 02:27N 37°55' W 122°22'0 0.0
2017-Sep-16 01:48N 37°55' W 122°22'0 0.0
2017-Sep-16 01:21N 37°55' W 122°22'0 0.0
2017-Sep-16 01:00N 37°55' W 122°22'0 0.0
2017-Sep-15 23:39N 37°55' W 122°22'0 0.0
2017-Sep-15 23:30N 37°55' W 122°22'1 2.8
2017-Sep-15 22:58N 37°54' W 122°24'3 6.7
2017-Sep-15 22:30N 37°51' W 122°24'3 6.0
2017-Sep-15 22:00N 37°48' W 122°24'0 0.0
2017-Sep-15 21:28N 37°48' W 122°24'0 0.1
2017-Sep-15 20:58N 37°48' W 122°24'0 0.0
2017-Sep-15 20:31N 37°48' W 122°24'0 0.0
2017-Sep-15 20:01N 37°48' W 122°24'0 0.1
2017-Sep-15 19:27N 37°48' W 122°24'0 0.1
2017-Sep-15 18:57N 37°48' W 122°24'0 0.0
2017-Sep-15 18:27N 37°48' W 122°24'0 0.0
2017-Sep-15 18:01N 37°48' W 122°24'0 0.0
2017-Sep-15 17:27N 37°48' W 122°24'0 0.1
2017-Sep-15 16:57N 37°48' W 122°24'0 0.0
2017-Sep-15 16:30N 37°48' W 122°24'0 0.0
2017-Sep-15 16:00N 37°48' W 122°24'0 0.0
2017-Sep-15 14:54N 37°48' W 122°24'0 0.1
2017-Sep-15 14:30N 37°48' W 122°24'0 0.4
2017-Sep-15 14:00N 37°48' W 122°24'2 4.9
2017-Sep-15 13:30N 37°51' W 122°24'3 6.8
2017-Sep-15 13:00N 37°54' W 122°24'2 4.3
2017-Sep-15 12:30N 37°55' W 122°22'0 0.0
2017-Sep-15 11:59N 37°55' W 122°22'0 0.0
2017-Sep-15 11:17N 37°55' W 122°22'0 0.0
2017-Sep-15 10:59N 37°55' W 122°22'0 0.0
2017-Sep-15 10:17N 37°55' W 122°22'0 0.0
2017-Sep-15 09:59N 37°55' W 122°22'0 0.0
2017-Sep-15 09:29N 37°55' W 122°22'0 0.0
2017-Sep-15 08:59N 37°55' W 122°22'0 0.0
2017-Sep-15 08:23N 37°55' W 122°22'0 0.0
2017-Sep-15 07:59N 37°55' W 122°22'0 0.0
2017-Sep-15 07:23N 37°55' W 122°22'0 0.0
2017-Sep-15 06:59N 37°55' W 122°22'0 0.0
2017-Sep-15 06:26N 37°55' W 122°22'0 0.0
2017-Sep-15 05:59N 37°55' W 122°22'0 0.0
2017-Sep-15 05:29N 37°55' W 122°22'0 0.0
2017-Sep-15 04:50N 37°55' W 122°22'0 0.0
2017-Sep-15 04:20N 37°55' W 122°22'0 0.0
2017-Sep-15 03:59N 37°55' W 122°22'0 0.0
2017-Sep-15 03:23N 37°55' W 122°22'0 0.0
2017-Sep-15 02:59N 37°55' W 122°22'0 0.0
2017-Sep-15 02:29N 37°55' W 122°22'0 0.0
2017-Sep-15 01:59N 37°55' W 122°22'0 0.0
2017-Sep-15 01:26N 37°55' W 122°22'0 0.0
2017-Sep-15 01:00N 37°55' W 122°22'1 2.8
2017-Sep-15 00:30N 37°54' W 122°24'3 6.1
2017-Sep-15 00:00N 37°51' W 122°23'4 7.1
2017-Sep-14 23:31N 37°48' W 122°21'3 6.3
2017-Sep-14 23:00N 37°48' W 122°17'0 0.0
2017-Sep-14 22:30N 37°48' W 122°17'0 0.0
2017-Sep-14 22:00N 37°48' W 122°17'0 0.0
2017-Sep-14 21:30N 37°48' W 122°17'0 0.0
2017-Sep-14 21:00N 37°48' W 122°17'0 0.0
2017-Sep-14 20:30N 37°48' W 122°17'0 0.0
2017-Sep-14 20:00N 37°48' W 122°17'0 0.0
2017-Sep-14 19:30N 37°48' W 122°17'0 0.0
2017-Sep-14 18:57N 37°48' W 122°17'0 0.0
2017-Sep-14 18:30N 37°48' W 122°17'0 0.0
2017-Sep-14 18:00N 37°48' W 122°17'0 0.0
2017-Sep-14 17:30N 37°48' W 122°17'0 0.0
2017-Sep-14 17:00N 37°48' W 122°17'0 0.0
2017-Sep-14 16:30N 37°48' W 122°17'0 0.0
2017-Sep-14 16:00N 37°48' W 122°17'0 0.0
2017-Sep-14 15:30N 37°48' W 122°17'0 0.0
2017-Sep-14 15:00N 37°48' W 122°17'0 0.0
2017-Sep-14 14:30N 37°48' W 122°17'0 0.0
2017-Sep-14 13:57N 37°48' W 122°17'0 0.0
2017-Sep-14 13:30N 37°48' W 122°17'0 0.0
2017-Sep-14 13:00N 37°48' W 122°17'0 0.0
2017-Sep-14 12:30N 37°48' W 122°17'0 0.0
2017-Sep-14 12:00N 37°48' W 122°17'0 0.0
2017-Sep-14 11:30N 37°48' W 122°17'0 0.0
2017-Sep-14 11:00N 37°48' W 122°17'0 0.0
2017-Sep-14 10:30N 37°48' W 122°17'0 0.0
2017-Sep-14 10:00N 37°48' W 122°17'0 0.0
2017-Sep-14 09:27N 37°48' W 122°17'0 0.0
2017-Sep-14 09:00N 37°48' W 122°17'0 0.0
2017-Sep-14 08:30N 37°48' W 122°17'0 0.0
2017-Sep-14 07:57N 37°48' W 122°17'0 0.0
2017-Sep-14 07:30N 37°48' W 122°17'0 0.0
2017-Sep-14 06:57N 37°48' W 122°17'0 0.0
2017-Sep-14 06:30N 37°48' W 122°17'0 0.0
2017-Sep-14 06:00N 37°48' W 122°17'0 0.0
2017-Sep-14 05:30N 37°48' W 122°17'0 0.0
2017-Sep-14 05:00N 37°48' W 122°17'0 0.0
2017-Sep-14 04:30N 37°48' W 122°17'0 0.0
2017-Sep-14 03:57N 37°48' W 122°17'0 0.0
2017-Sep-14 03:23N 37°48' W 122°17'0 0.0
2017-Sep-14 02:56N 37°48' W 122°17'0 0.0
2017-Sep-14 02:29N 37°48' W 122°17'0 0.0
2017-Sep-14 01:59N 37°48' W 122°17'0 0.0
2017-Sep-14 01:29N 37°48' W 122°17'0 0.0
2017-Sep-14 00:56N 37°48' W 122°17'0 0.0
2017-Sep-14 00:26N 37°48' W 122°17'0 0.0
2017-Sep-13 23:56N 37°48' W 122°17'0 0.3
2017-Sep-13 23:31N 37°48' W 122°17'0 0.1
2017-Sep-13 23:01N 37°48' W 122°17'0 0.3
2017-Sep-13 22:31N 37°48' W 122°17'0 0.3
2017-Sep-13 21:58N 37°48' W 122°17'0 0.0
2017-Sep-13 21:28N 37°48' W 122°17'0 0.0
2017-Sep-13 20:58N 37°48' W 122°17'0 0.0
2017-Sep-13 20:28N 37°48' W 122°17'0 0.0
2017-Sep-13 19:58N 37°48' W 122°17'0 0.0
2017-Sep-13 19:25N 37°48' W 122°17'0 0.0
2017-Sep-13 18:52N 37°48' W 122°17'0 0.0
2017-Sep-13 18:25N 37°48' W 122°17'0 0.0
2017-Sep-13 17:58N 37°48' W 122°17'0 0.0
2017-Sep-13 17:25N 37°48' W 122°17'0 0.0
2017-Sep-13 16:58N 37°48' W 122°17'0 0.0
2017-Sep-13 16:25N 37°48' W 122°17'0 0.0
2017-Sep-13 15:55N 37°48' W 122°17'0 0.0
2017-Sep-13 15:19N 37°48' W 122°17'0 0.0
2017-Sep-13 14:58N 37°48' W 122°17'0 0.0
2017-Sep-13 14:25N 37°48' W 122°17'0 0.0
2017-Sep-13 13:58N 37°48' W 122°17'0 0.0
2017-Sep-13 13:28N 37°48' W 122°17'0 0.0
2017-Sep-13 12:58N 37°48' W 122°17'0 0.0
2017-Sep-13 12:28N 37°48' W 122°17'0 0.0
2017-Sep-13 11:58N 37°48' W 122°17'0 0.0
2017-Sep-13 11:28N 37°48' W 122°17'0 0.0
2017-Sep-13 10:58N 37°48' W 122°17'0 0.0
2017-Sep-13 10:28N 37°48' W 122°17'0 0.0
2017-Sep-13 09:58N 37°48' W 122°17'0 0.0
2017-Sep-13 09:28N 37°48' W 122°17'0 0.0
2017-Sep-13 08:58N 37°48' W 122°17'0 0.0
2017-Sep-13 08:28N 37°48' W 122°17'0 0.0
2017-Sep-13 07:58N 37°48' W 122°17'0 0.0
2017-Sep-13 07:28N 37°48' W 122°17'0 0.0
2017-Sep-13 06:58N 37°48' W 122°17'0 0.0
2017-Sep-13 06:28N 37°48' W 122°17'0 0.0
2017-Sep-13 05:58N 37°48' W 122°17'0 0.0
2017-Sep-13 05:25N 37°48' W 122°17'0 0.0
2017-Sep-13 04:58N 37°48' W 122°17'0 0.0
2017-Sep-13 04:28N 37°48' W 122°17'0 0.0
2017-Sep-13 03:52N 37°48' W 122°17'0 0.0
2017-Sep-13 03:28N 37°48' W 122°17'0 0.0
2017-Sep-13 02:55N 37°48' W 122°17'0 0.0
2017-Sep-13 02:28N 37°48' W 122°17'0 0.0
2017-Sep-13 01:58N 37°48' W 122°17'0 0.0
2017-Sep-13 01:28N 37°48' W 122°17'0 0.0
2017-Sep-13 00:58N 37°48' W 122°17'0 0.0
2017-Sep-13 00:28N 37°48' W 122°17'0 0.0
2017-Sep-12 23:58N 37°48' W 122°17'0 0.0
2017-Sep-12 23:28N 37°48' W 122°17'0 0.0
2017-Sep-12 22:58N 37°48' W 122°17'0 0.0
2017-Sep-12 22:28N 37°48' W 122°17'0 0.0
2017-Sep-12 21:58N 37°48' W 122°17'0 0.0
2017-Sep-12 21:22N 37°48' W 122°17'0 0.0
2017-Sep-12 20:58N 37°48' W 122°17'0 0.0
2017-Sep-12 20:28N 37°48' W 122°17'0 0.0
2017-Sep-12 19:58N 37°48' W 122°17'0 0.0
2017-Sep-12 19:28N 37°48' W 122°17'0 0.0
2017-Sep-12 19:00N 37°48' W 122°17'0 0.0
2017-Sep-12 18:31N 37°48' W 122°17'0 0.0
2017-Sep-12 18:01N 37°48' W 122°17'0 0.0
2017-Sep-12 17:31N 37°48' W 122°17'0 0.0
2017-Sep-12 16:57N 37°48' W 122°17'0 0.0
2017-Sep-12 16:30N 37°48' W 122°17'0 0.0
2017-Sep-12 16:00N 37°48' W 122°17'0 0.0
2017-Sep-12 15:30N 37°48' W 122°17'0 0.0
2017-Sep-12 15:00N 37°48' W 122°17'0 0.0
2017-Sep-12 14:30N 37°48' W 122°17'0 0.0
2017-Sep-12 14:00N 37°48' W 122°17'0 0.3
2017-Sep-12 13:30N 37°48' W 122°17'0 0.0
2017-Sep-12 12:59N 37°48' W 122°17'0 0.0
2017-Sep-12 12:29N 37°48' W 122°17'0 0.0
2017-Sep-12 11:59N 37°48' W 122°17'0 0.0
2017-Sep-12 11:29N 37°48' W 122°17'0 0.0
2017-Sep-12 10:59N 37°48' W 122°17'0 0.0
2017-Sep-12 10:29N 37°48' W 122°17'0 0.0
2017-Sep-12 09:59N 37°48' W 122°17'0 0.0
2017-Sep-12 09:26N 37°48' W 122°17'0 0.0
2017-Sep-12 08:59N 37°48' W 122°17'0 0.0
2017-Sep-12 08:29N 37°48' W 122°17'0 0.0
2017-Sep-12 07:56N 37°48' W 122°17'0 0.0
2017-Sep-12 07:29N 37°48' W 122°17'0 0.0
2017-Sep-12 06:56N 37°48' W 122°17'0 0.0
2017-Sep-12 06:29N 37°48' W 122°17'0 0.0
2017-Sep-12 05:56N 37°48' W 122°17'0 0.0
2017-Sep-12 05:29N 37°48' W 122°17'0 0.0
2017-Sep-12 04:59N 37°48' W 122°17'0 0.0
2017-Sep-12 04:29N 37°48' W 122°17'0 0.0
2017-Sep-12 03:59N 37°48' W 122°17'0 0.0
2017-Sep-12 03:29N 37°48' W 122°17'0 0.0
2017-Sep-12 02:59N 37°48' W 122°17'0 0.0
2017-Sep-12 02:29N 37°48' W 122°17'0 0.0
2017-Sep-12 01:59N 37°48' W 122°17'  
Track history (hours):
 
Tides and Currents Weather Stations Pressure Air Temp Water Temp Dewpoint Dewpoint Depression Visibility Wind Speed Wind Dir Waves Ship Positions

Royal Melbourne

Owner: Harley Marine Services, Inc, Seattle, WA. More information available from US FCC via Universal Licensing System and Coast Guard Vessel Documentation Center.

Last reported at 2017-Sep-22 01:52 UTC. Time now 2017-Sep-22 18:50 UTC.
Position N 37°57' W 122°26'.

Length 22 m; draft 3 m.

Type: Tug. MMSI: 366998830.

Date/timePositionNaut miles runAvg speedWind from/ knotsBaromVisibWave heightAir tempDewpointWater temp
2017-Sep-22 01:52N 37°57' W 122°26'2 6.2
2017-Sep-22 01:30N 37°55' W 122°25'3 6.8
2017-Sep-22 01:00N 37°52' W 122°24'5 9.2
2017-Sep-22 00:30N 37°48' W 122°20'3 5.4
2017-Sep-22 00:00N 37°48' W 122°17'0 0.0
2017-Sep-21 23:28N 37°48' W 122°17'0 0.0
2017-Sep-21 22:58N 37°48' W 122°17'0 0.0
2017-Sep-21 22:19N 37°48' W 122°17'0 0.0
2017-Sep-21 21:58N 37°48' W 122°17'0 0.0
2017-Sep-21 21:25N 37°48' W 122°17'0 0.0
2017-Sep-21 20:58N 37°48' W 122°17'0 0.0
2017-Sep-21 20:28N 37°48' W 122°17'0 0.0
2017-Sep-21 19:58N 37°48' W 122°17'0 0.0
2017-Sep-21 19:28N 37°48' W 122°17'0 0.0
2017-Sep-21 18:58N 37°48' W 122°17'0 0.0
2017-Sep-21 18:28N 37°48' W 122°17'0 0.0
2017-Sep-21 17:49N 37°48' W 122°17'0 0.0
2017-Sep-21 17:19N 37°48' W 122°17'0 0.0
2017-Sep-21 16:52N 37°48' W 122°17'0 0.0
2017-Sep-21 16:25N 37°48' W 122°17'0 0.0
2017-Sep-21 15:55N 37°48' W 122°17'0 0.0
2017-Sep-21 15:25N 37°48' W 122°17'0 0.0
2017-Sep-21 14:58N 37°48' W 122°17'0 0.0
2017-Sep-21 14:31N 37°48' W 122°17'0 0.0
2017-Sep-21 14:01N 37°48' W 122°17'0 0.0
2017-Sep-21 13:27N 37°48' W 122°17'0 0.0
2017-Sep-21 13:00N 37°48' W 122°17'0 0.0
2017-Sep-21 12:28N 37°48' W 122°17'0 0.0
2017-Sep-21 12:00N 37°48' W 122°17'0 0.0
2017-Sep-21 11:28N 37°48' W 122°17'0 0.0
2017-Sep-21 11:00N 37°48' W 122°17'0 0.0
2017-Sep-21 10:30N 37°48' W 122°17'0 0.0
2017-Sep-21 10:00N 37°48' W 122°17'0 0.0
2017-Sep-21 09:30N 37°48' W 122°17'0 0.0
2017-Sep-21 08:57N 37°48' W 122°17'0 0.0
2017-Sep-21 08:30N 37°48' W 122°17'0 0.0
2017-Sep-21 08:00N 37°48' W 122°17'0 0.0
2017-Sep-21 07:30N 37°48' W 122°17'0 0.0
2017-Sep-21 07:00N 37°48' W 122°17'3 5.6
2017-Sep-21 06:30N 37°48' W 122°21'3 6.3
2017-Sep-21 06:00N 37°45' W 122°21'1 1.3
2017-Sep-21 05:31N 37°44' W 122°21'0 0.0
2017-Sep-21 04:59N 37°44' W 122°21'0 0.0
2017-Sep-21 04:23N 37°44' W 122°21'0 0.0
2017-Sep-21 03:59N 37°44' W 122°21'0 0.1
2017-Sep-21 03:29N 37°44' W 122°21'0 0.1
2017-Sep-21 02:59N 37°44' W 122°21'0 0.3
2017-Sep-21 02:29N 37°44' W 122°21'0 0.1
2017-Sep-21 01:59N 37°44' W 122°21'0 0.0
2017-Sep-21 01:26N 37°44' W 122°21'0 0.0
2017-Sep-21 00:59N 37°44' W 122°21'0 0.5
2017-Sep-21 00:30N 37°45' W 122°21'2 3.4
2017-Sep-21 00:01N 37°46' W 122°21'0 0.0
2017-Sep-20 23:28N 37°46' W 122°21'0 0.0
2017-Sep-20 22:58N 37°46' W 122°21'0 0.0
2017-Sep-20 22:28N 37°46' W 122°21'0 0.0
2017-Sep-20 21:58N 37°46' W 122°21'0 0.2
2017-Sep-20 21:31N 37°46' W 122°21'0 0.3
2017-Sep-20 20:58N 37°46' W 122°21'0 0.1
2017-Sep-20 20:31N 37°46' W 122°21'0 0.1
2017-Sep-20 20:01N 37°46' W 122°21'2 4.8
2017-Sep-20 19:30N 37°48' W 122°23'1 1.5
2017-Sep-20 19:00N 37°48' W 122°24'0 0.0
2017-Sep-20 18:30N 37°48' W 122°24'0 0.0
2017-Sep-20 18:00N 37°48' W 122°24'0 0.1
2017-Sep-20 17:30N 37°48' W 122°24'0 0.0
2017-Sep-20 17:00N 37°48' W 122°24'0 0.1
2017-Sep-20 16:30N 37°48' W 122°24'0 0.1
2017-Sep-20 16:01N 37°48' W 122°24'0 0.0
2017-Sep-20 15:30N 37°48' W 122°24'0 0.0
2017-Sep-20 14:58N 37°48' W 122°24'0 0.4
2017-Sep-20 14:00N 37°48' W 122°24'2 3.8
2017-Sep-20 13:30N 37°48' W 122°21'3 5.6
2017-Sep-20 13:00N 37°47' W 122°18'1 1.0
2017-Sep-20 12:29N 37°48' W 122°17'0 0.0
2017-Sep-20 11:59N 37°48' W 122°17'0 0.0
2017-Sep-20 11:29N 37°48' W 122°17'0 0.0
2017-Sep-20 10:59N 37°48' W 122°17'0 0.0
2017-Sep-20 10:29N 37°48' W 122°17'0 0.0
2017-Sep-20 09:56N 37°48' W 122°17'0 0.0
2017-Sep-20 09:29N 37°48' W 122°17'0 0.0
2017-Sep-20 08:59N 37°48' W 122°17'0 0.0
2017-Sep-20 08:29N 37°48' W 122°17'0 0.0
2017-Sep-20 07:59N 37°48' W 122°17'0 0.0
2017-Sep-20 07:29N 37°48' W 122°17'0 0.0
2017-Sep-20 06:59N 37°48' W 122°17'0 0.0
2017-Sep-20 06:29N 37°48' W 122°17'0 0.0
2017-Sep-20 05:59N 37°48' W 122°17'0 0.0
2017-Sep-20 05:29N 37°48' W 122°17'0 0.0
2017-Sep-20 04:59N 37°48' W 122°17'0 0.0
2017-Sep-20 04:29N 37°48' W 122°17'0 0.0
2017-Sep-20 03:59N 37°48' W 122°17'0 0.0
2017-Sep-20 03:29N 37°48' W 122°17'0 0.0
2017-Sep-20 02:59N 37°48' W 122°17'0 0.0
2017-Sep-20 02:29N 37°48' W 122°17'0 0.0
2017-Sep-20 01:59N 37°48' W 122°17'0 0.0
2017-Sep-20 01:26N 37°48' W 122°17'0 0.0
2017-Sep-20 00:59N 37°48' W 122°17'0 0.0
2017-Sep-20 00:29N 37°48' W 122°17'0 0.0
2017-Sep-19 23:58N 37°48' W 122°17'0 0.0
2017-Sep-19 23:28N 37°48' W 122°17'0 0.0
2017-Sep-19 22:59N 37°48' W 122°17'0 0.0
2017-Sep-19 22:28N 37°48' W 122°17'0 0.0
2017-Sep-19 21:58N 37°48' W 122°17'0 0.7
2017-Sep-19 21:30N 37°48' W 122°17'3 5.7
2017-Sep-19 21:00N 37°47' W 122°21'1 1.6
2017-Sep-19 20:30N 37°46' W 122°21'0 0.3
2017-Sep-19 20:00N 37°46' W 122°21'0 0.1
2017-Sep-19 19:30N 37°46' W 122°21'0 0.1
2017-Sep-19 18:57N 37°46' W 122°21'0 0.0
2017-Sep-19 18:31N 37°46' W 122°21'0 0.1
2017-Sep-19 17:54N 37°46' W 122°21'0 0.0
2017-Sep-19 17:30N 37°46' W 122°21'0 0.1
2017-Sep-19 17:00N 37°46' W 122°21'0 0.1
2017-Sep-19 16:30N 37°46' W 122°21'0 0.0
2017-Sep-19 16:00N 37°46' W 122°21'0 0.1
2017-Sep-19 15:27N 37°46' W 122°21'0 0.1
2017-Sep-19 15:00N 37°46' W 122°21'0 0.0
2017-Sep-19 14:30N 37°46' W 122°21'0 0.4
2017-Sep-19 13:57N 37°46' W 122°21'0 0.2
2017-Sep-19 13:30N 37°46' W 122°21'0 0.0
2017-Sep-19 13:00N 37°46' W 122°21'0 0.0
2017-Sep-19 12:30N 37°46' W 122°21'0 0.0
2017-Sep-19 12:00N 37°46' W 122°21'1 1.7
2017-Sep-19 11:30N 37°47' W 122°22'2 4.9
2017-Sep-19 11:00N 37°49' W 122°23'3 6.6
2017-Sep-19 10:30N 37°52' W 122°24'2 4.9
2017-Sep-19 10:00N 37°54' W 122°23'1 1.7
2017-Sep-19 09:28N 37°55' W 122°22'0 0.0
2017-Sep-19 08:58N 37°55' W 122°22'0 0.0
2017-Sep-19 08:28N 37°55' W 122°22'0 0.0
2017-Sep-19 07:58N 37°55' W 122°22'0 0.0
2017-Sep-19 07:28N 37°55' W 122°22'0 0.0
2017-Sep-19 06:52N 37°55' W 122°22'0 0.0
2017-Sep-19 06:28N 37°55' W 122°22'0 0.0
2017-Sep-19 05:58N 37°55' W 122°22'0 0.0
2017-Sep-19 05:28N 37°55' W 122°22'0 0.0
2017-Sep-19 04:58N 37°55' W 122°22'0 0.0
2017-Sep-19 04:22N 37°55' W 122°22'0 0.0
2017-Sep-19 03:40N 37°55' W 122°22'0 0.0
2017-Sep-19 03:25N 37°55' W 122°22'0 0.0
2017-Sep-19 02:52N 37°55' W 122°22'0 0.0
2017-Sep-19 02:28N 37°55' W 122°22'0 0.0
2017-Sep-19 01:58N 37°55' W 122°22'0 0.0
2017-Sep-19 01:22N 37°55' W 122°22'0 0.0
2017-Sep-19 00:58N 37°55' W 122°22'0 0.0
2017-Sep-19 00:28N 37°55' W 122°22'0 0.0
2017-Sep-18 23:58N 37°55' W 122°22'0 0.0
2017-Sep-18 23:27N 37°55' W 122°22'0 0.0
2017-Sep-18 22:57N 37°55' W 122°22'0 0.0
2017-Sep-18 22:27N 37°55' W 122°22'0 0.0
2017-Sep-18 21:57N 37°55' W 122°22'0 0.0
2017-Sep-18 21:27N 37°55' W 122°22'0 0.0
2017-Sep-18 20:57N 37°55' W 122°22'0 0.0
2017-Sep-18 20:27N 37°55' W 122°22'0 0.0
2017-Sep-18 19:57N 37°55' W 122°22'0 0.0
2017-Sep-18 19:21N 37°55' W 122°22'0 0.0
2017-Sep-18 19:00N 37°55' W 122°22'0 0.0
2017-Sep-18 18:15N 37°55' W 122°22'0 0.0
2017-Sep-18 17:57N 37°55' W 122°22'0 0.0
2017-Sep-18 17:27N 37°55' W 122°22'0 0.0
2017-Sep-18 16:54N 37°55' W 122°22'0 0.0
2017-Sep-18 16:21N 37°55' W 122°22'0 0.0
2017-Sep-18 16:00N 37°55' W 122°22'0 0.0
2017-Sep-18 15:30N 37°55' W 122°22'0 0.0
2017-Sep-18 15:00N 37°55' W 122°22'0 0.0
2017-Sep-18 14:30N 37°55' W 122°22'0 0.0
2017-Sep-18 14:00N 37°55' W 122°22'0 0.0
2017-Sep-18 13:24N 37°55' W 122°22'0 0.0
2017-Sep-18 12:57N 37°55' W 122°22'0 0.4
2017-Sep-18 12:30N 37°55' W 122°22'3 5.0
2017-Sep-18 12:00N 37°54' W 122°25'4 7.4
2017-Sep-18 11:30N 37°50' W 122°22'4 8.6
2017-Sep-18 11:00N 37°48' W 122°18'1 2.0
2017-Sep-18 10:31N 37°48' W 122°17'0 0.0
2017-Sep-18 10:00N 37°48' W 122°17'0 0.0
2017-Sep-18 09:30N 37°48' W 122°17'0 0.0
2017-Sep-18 09:00N 37°48' W 122°17'0 0.0
2017-Sep-18 08:30N 37°48' W 122°17'0 0.0
2017-Sep-18 08:00N 37°48' W 122°17'0 0.0
2017-Sep-18 07:30N 37°48' W 122°17'0 0.0
2017-Sep-18 07:00N 37°48' W 122°17'0 0.0
2017-Sep-18 06:30N 37°48' W 122°17'0 0.0
2017-Sep-18 05:57N 37°48' W 122°17'0 0.0
2017-Sep-18 05:30N 37°48' W 122°17'0 0.0
2017-Sep-18 05:00N 37°48' W 122°17'0 0.0
2017-Sep-18 04:30N 37°48' W 122°17'0 0.0
2017-Sep-18 03:57N 37°48' W 122°17'0 0.0
2017-Sep-18 03:30N 37°48' W 122°17'0 0.0
2017-Sep-18 03:00N 37°48' W 122°17'0 0.0
2017-Sep-18 02:30N 37°48' W 122°17'0 0.0
2017-Sep-18 01:57N 37°48' W 122°17'0 0.0
2017-Sep-18 01:30N 37°48' W 122°17'0 0.0
2017-Sep-18 01:00N 37°48' W 122°17'0 0.0
2017-Sep-18 00:30N 37°48' W 122°17'0 0.0
2017-Sep-18 00:00N 37°48' W 122°17'0 0.0
2017-Sep-17 23:30N 37°48' W 122°17'0 0.0
2017-Sep-17 23:00N 37°48' W 122°17'0 0.0
2017-Sep-17 22:27N 37°48' W 122°17'0 0.0
2017-Sep-17 22:00N 37°48' W 122°17'0 0.0
2017-Sep-17 21:30N 37°48' W 122°17'0 0.0
2017-Sep-17 21:00N 37°48' W 122°17'0 0.0
2017-Sep-17 20:30N 37°48' W 122°17'0 0.0
2017-Sep-17 20:00N 37°48' W 122°17'0 0.0
2017-Sep-17 19:30N 37°48' W 122°17'0 0.0
2017-Sep-17 19:00N 37°48' W 122°17'0 0.0
2017-Sep-17 18:30N 37°48' W 122°17'0 0.0
2017-Sep-17 18:00N 37°48' W 122°17'0 0.0
2017-Sep-17 17:30N 37°48' W 122°17'0 0.0
2017-Sep-17 16:57N 37°48' W 122°17'0 0.0
2017-Sep-17 16:30N 37°48' W 122°17'0 0.0
2017-Sep-17 16:00N 37°48' W 122°17'0 0.0
2017-Sep-17 15:30N 37°48' W 122°17'0 0.0
2017-Sep-17 15:00N 37°48' W 122°17'0 0.0
2017-Sep-17 14:30N 37°48' W 122°17'0 0.0
2017-Sep-17 14:00N 37°48' W 122°17'1 2.4
2017-Sep-17 13:31N 37°48' W 122°19'4 8.9
2017-Sep-17 13:01N 37°51' W 122°23'5 9.3
2017-Sep-17 12:30N 37°55' W 122°25'6 9.9
2017-Sep-17 11:54N 38°01' W 122°24'410.6
2017-Sep-17 11:30N 38°03' W 122°19'3 6.1
2017-Sep-17 11:01N 38°03' W 122°16'0 0.0
2017-Sep-17 10:30N 38°03' W 122°16'0 0.0
2017-Sep-17 10:00N 38°03' W 122°16'0 0.0
2017-Sep-17 09:30N 38°03' W 122°16'0 0.0
2017-Sep-17 09:00N 38°03' W 122°16'0 0.0
2017-Sep-17 08:30N 38°03' W 122°16'0 0.0
2017-Sep-17 07:57N 38°03' W 122°16'0 0.0
2017-Sep-17 07:24N 38°03' W 122°16'0 0.0
2017-Sep-17 07:00N 38°03' W 122°16'0 0.0
2017-Sep-17 06:30N 38°03' W 122°16'0 0.0
2017-Sep-17 06:00N 38°03' W 122°16'0 0.0
2017-Sep-17 05:30N 38°03' W 122°16'0 0.0
2017-Sep-17 05:00N 38°03' W 122°16'0 0.0
2017-Sep-17 04:30N 38°03' W 122°16'0 0.0
2017-Sep-17 04:00N 38°03' W 122°16'0 0.0
2017-Sep-17 03:30N 38°03' W 122°16'0 0.0
2017-Sep-17 03:00N 38°03' W 122°16'0 0.0
2017-Sep-17 02:30N 38°03' W 122°16'0 0.0
2017-Sep-17 02:00N 38°03' W 122°16'0 0.0
2017-Sep-17 01:30N 38°03' W 122°16'0 0.0
2017-Sep-17 01:00N 38°03' W 122°16'0 0.0
2017-Sep-17 00:30N 38°03' W 122°16'0 0.0
2017-Sep-16 23:57N 38°03' W 122°16'0 0.0
2017-Sep-16 23:06N 38°03' W 122°16'0 0.0
2017-Sep-16 22:54N 38°03' W 122°16'0 0.0
2017-Sep-16 22:21N 38°03' W 122°16'0 0.0
2017-Sep-16 21:54N 38°03' W 122°16'0 0.0
2017-Sep-16 21:30N 38°03' W 122°16'0 0.0
2017-Sep-16 20:51N 38°03' W 122°16'0 0.0
2017-Sep-16 20:30N 38°03' W 122°16'0 0.0
2017-Sep-16 20:00N 38°03' W 122°16'0 0.0
2017-Sep-16 19:21N 38°03' W 122°16'0 0.0
2017-Sep-16 18:39N 38°03' W 122°16'0 0.0
2017-Sep-16 18:18N 38°03' W 122°16'0 0.0
2017-Sep-16 18:00N 38°03' W 122°16'0 0.0
2017-Sep-16 17:30N 38°03' W 122°16'0 0.0
2017-Sep-16 16:57N 38°03' W 122°16'0 0.0
2017-Sep-16 15:42N 38°03' W 122°16'0 0.0
2017-Sep-16 15:30N 38°03' W 122°16'8 4.8
2017-Sep-16 13:47N 37°59' W 122°25'2 6.9
2017-Sep-16 13:25N 37°57' W 122°26'3 6.8
2017-Sep-16 13:00N 37°55' W 122°24'2 3.8
2017-Sep-16 12:30N 37°55' W 122°22'0 0.0
2017-Sep-16 11:58N 37°55' W 122°22'0 0.0
2017-Sep-16 11:28N 37°55' W 122°22'0 0.0
2017-Sep-16 11:01N 37°55' W 122°22'0 0.0
2017-Sep-16 10:28N 37°55' W 122°22'0 0.0
2017-Sep-16 10:01N 37°55' W 122°22'0 0.0
2017-Sep-16 09:30N 37°55' W 122°22'0 0.0
2017-Sep-16 09:00N 37°55' W 122°22'0 0.0
2017-Sep-16 08:30N 37°55' W 122°22'0 0.0
2017-Sep-16 08:00N 37°55' W 122°22'0 0.0
2017-Sep-16 07:30N 37°55' W 122°22'0 0.0
2017-Sep-16 07:00N 37°55' W 122°22'0 0.0
2017-Sep-16 06:30N 37°55' W 122°22'0 0.0
2017-Sep-16 06:00N 37°55' W 122°22'0 0.0
2017-Sep-16 05:27N 37°55' W 122°22'0 0.0
2017-Sep-16 04:57N 37°55' W 122°22'0 0.0
2017-Sep-16 04:30N 37°55' W 122°22'0 0.0
2017-Sep-16 03:36N 37°55' W 122°22'0 0.1
2017-Sep-16 03:30N 37°55' W 122°22'0 0.0
2017-Sep-16 03:00N 37°55' W 122°22'0 0.0
2017-Sep-16 02:27N 37°55' W 122°22'0 0.0
2017-Sep-16 01:48N 37°55' W 122°22'0 0.0
2017-Sep-16 01:21N 37°55' W 122°22'0 0.0
2017-Sep-16 01:00N 37°55' W 122°22'0 0.0
2017-Sep-15 23:39N 37°55' W 122°22'0 0.0
2017-Sep-15 23:30N 37°55' W 122°22'1 2.8
2017-Sep-15 22:58N 37°54' W 122°24'3 6.7
2017-Sep-15 22:30N 37°51' W 122°24'3 6.0
2017-Sep-15 22:00N 37°48' W 122°24'0 0.0
2017-Sep-15 21:28N 37°48' W 122°24'0 0.1
2017-Sep-15 20:58N 37°48' W 122°24'0 0.0
2017-Sep-15 20:31N 37°48' W 122°24'0 0.0
2017-Sep-15 20:01N 37°48' W 122°24'0 0.1
2017-Sep-15 19:27N 37°48' W 122°24'0 0.1
2017-Sep-15 18:57N 37°48' W 122°24'0 0.0
2017-Sep-15 18:27N 37°48' W 122°24'0 0.0
2017-Sep-15 18:01N 37°48' W 122°24'0 0.0
2017-Sep-15 17:27N 37°48' W 122°24'0 0.1
2017-Sep-15 16:57N 37°48' W 122°24'0 0.0
2017-Sep-15 16:30N 37°48' W 122°24'0 0.0
2017-Sep-15 16:00N 37°48' W 122°24'0 0.0
2017-Sep-15 14:54N 37°48' W 122°24'0 0.1
2017-Sep-15 14:30N 37°48' W 122°24'0 0.4
2017-Sep-15 14:00N 37°48' W 122°24'2 4.9
2017-Sep-15 13:30N 37°51' W 122°24'3 6.8
2017-Sep-15 13:00N 37°54' W 122°24'2 4.3
2017-Sep-15 12:30N 37°55' W 122°22'0 0.0
2017-Sep-15 11:59N 37°55' W 122°22'0 0.0
2017-Sep-15 11:17N 37°55' W 122°22'0 0.0
2017-Sep-15 10:59N 37°55' W 122°22'0 0.0
2017-Sep-15 10:17N 37°55' W 122°22'0 0.0
2017-Sep-15 09:59N 37°55' W 122°22'0 0.0
2017-Sep-15 09:29N 37°55' W 122°22'0 0.0
2017-Sep-15 08:59N 37°55' W 122°22'0 0.0
2017-Sep-15 08:23N 37°55' W 122°22'0 0.0
2017-Sep-15 07:59N 37°55' W 122°22'0 0.0
2017-Sep-15 07:23N 37°55' W 122°22'0 0.0
2017-Sep-15 06:59N 37°55' W 122°22'0 0.0
2017-Sep-15 06:26N 37°55' W 122°22'0 0.0
2017-Sep-15 05:59N 37°55' W 122°22'0 0.0
2017-Sep-15 05:29N 37°55' W 122°22'0 0.0
2017-Sep-15 04:50N 37°55' W 122°22'0 0.0
2017-Sep-15 04:20N 37°55' W 122°22'0 0.0
2017-Sep-15 03:59N 37°55' W 122°22'0 0.0
2017-Sep-15 03:23N 37°55' W 122°22'0 0.0
2017-Sep-15 02:59N 37°55' W 122°22'0 0.0
2017-Sep-15 02:29N 37°55' W 122°22'0 0.0
2017-Sep-15 01:59N 37°55' W 122°22'0 0.0
2017-Sep-15 01:26N 37°55' W 122°22'0 0.0
2017-Sep-15 01:00N 37°55' W 122°22'1 2.8
2017-Sep-15 00:30N 37°54' W 122°24'3 6.1
2017-Sep-15 00:00N 37°51' W 122°23'4 7.1
2017-Sep-14 23:31N 37°48' W 122°21'3 6.3
2017-Sep-14 23:00N 37°48' W 122°17'0 0.0
2017-Sep-14 22:30N 37°48' W 122°17'0 0.0
2017-Sep-14 22:00N 37°48' W 122°17'0 0.0
2017-Sep-14 21:30N 37°48' W 122°17'0 0.0
2017-Sep-14 21:00N 37°48' W 122°17'0 0.0
2017-Sep-14 20:30N 37°48' W 122°17'0 0.0
2017-Sep-14 20:00N 37°48' W 122°17'0 0.0
2017-Sep-14 19:30N 37°48' W 122°17'0 0.0
2017-Sep-14 18:57N 37°48' W 122°17'0 0.0
2017-Sep-14 18:30N 37°48' W 122°17'0 0.0
2017-Sep-14 18:00N 37°48' W 122°17'0 0.0
2017-Sep-14 17:30N 37°48' W 122°17'0 0.0
2017-Sep-14 17:00N 37°48' W 122°17'0 0.0
2017-Sep-14 16:30N 37°48' W 122°17'0 0.0
2017-Sep-14 16:00N 37°48' W 122°17'0 0.0
2017-Sep-14 15:30N 37°48' W 122°17'0 0.0
2017-Sep-14 15:00N 37°48' W 122°17'0 0.0
2017-Sep-14 14:30N 37°48' W 122°17'0 0.0
2017-Sep-14 13:57N 37°48' W 122°17'0 0.0
2017-Sep-14 13:30N 37°48' W 122°17'0 0.0
2017-Sep-14 13:00N 37°48' W 122°17'0 0.0
2017-Sep-14 12:30N 37°48' W 122°17'0 0.0
2017-Sep-14 12:00N 37°48' W 122°17'0 0.0
2017-Sep-14 11:30N 37°48' W 122°17'0 0.0
2017-Sep-14 11:00N 37°48' W 122°17'0 0.0
2017-Sep-14 10:30N 37°48' W 122°17'0 0.0
2017-Sep-14 10:00N 37°48' W 122°17'0 0.0
2017-Sep-14 09:27N 37°48' W 122°17'0 0.0
2017-Sep-14 09:00N 37°48' W 122°17'0 0.0
2017-Sep-14 08:30N 37°48' W 122°17'0 0.0
2017-Sep-14 07:57N 37°48' W 122°17'0 0.0
2017-Sep-14 07:30N 37°48' W 122°17'0 0.0
2017-Sep-14 06:57N 37°48' W 122°17'0 0.0
2017-Sep-14 06:30N 37°48' W 122°17'0 0.0
2017-Sep-14 06:00N 37°48' W 122°17'0 0.0
2017-Sep-14 05:30N 37°48' W 122°17'0 0.0
2017-Sep-14 05:00N 37°48' W 122°17'0 0.0
2017-Sep-14 04:30N 37°48' W 122°17'0 0.0
2017-Sep-14 03:57N 37°48' W 122°17'0 0.0
2017-Sep-14 03:23N 37°48' W 122°17'0 0.0
2017-Sep-14 02:56N 37°48' W 122°17'0 0.0
2017-Sep-14 02:29N 37°48' W 122°17'0 0.0
2017-Sep-14 01:59N 37°48' W 122°17'0 0.0
2017-Sep-14 01:29N 37°48' W 122°17'0 0.0
2017-Sep-14 00:56N 37°48' W 122°17'0 0.0
2017-Sep-14 00:26N 37°48' W 122°17'0 0.0
2017-Sep-13 23:56N 37°48' W 122°17'0 0.3
2017-Sep-13 23:31N 37°48' W 122°17'0 0.1
2017-Sep-13 23:01N 37°48' W 122°17'0 0.3
2017-Sep-13 22:31N 37°48' W 122°17'0 0.3
2017-Sep-13 21:58N 37°48' W 122°17'0 0.0
2017-Sep-13 21:28N 37°48' W 122°17'0 0.0
2017-Sep-13 20:58N 37°48' W 122°17'0 0.0
2017-Sep-13 20:28N 37°48' W 122°17'0 0.0
2017-Sep-13 19:58N 37°48' W 122°17'0 0.0
2017-Sep-13 19:25N 37°48' W 122°17'0 0.0
2017-Sep-13 18:52N 37°48' W 122°17'0 0.0
2017-Sep-13 18:25N 37°48' W 122°17'0 0.0
2017-Sep-13 17:58N 37°48' W 122°17'0 0.0
2017-Sep-13 17:25N 37°48' W 122°17'0 0.0
2017-Sep-13 16:58N 37°48' W 122°17'0 0.0
2017-Sep-13 16:25N 37°48' W 122°17'0 0.0
2017-Sep-13 15:55N 37°48' W 122°17'0 0.0
2017-Sep-13 15:19N 37°48' W 122°17'0 0.0
2017-Sep-13 14:58N 37°48' W 122°17'0 0.0
2017-Sep-13 14:25N 37°48' W 122°17'0 0.0
2017-Sep-13 13:58N 37°48' W 122°17'0 0.0
2017-Sep-13 13:28N 37°48' W 122°17'0 0.0
2017-Sep-13 12:58N 37°48' W 122°17'0 0.0
2017-Sep-13 12:28N 37°48' W 122°17'0 0.0
2017-Sep-13 11:58N 37°48' W 122°17'0 0.0
2017-Sep-13 11:28N 37°48' W 122°17'0 0.0
2017-Sep-13 10:58N 37°48' W 122°17'0 0.0
2017-Sep-13 10:28N 37°48' W 122°17'0 0.0
2017-Sep-13 09:58N 37°48' W 122°17'0 0.0
2017-Sep-13 09:28N 37°48' W 122°17'0 0.0
2017-Sep-13 08:58N 37°48' W 122°17'0 0.0
2017-Sep-13 08:28N 37°48' W 122°17'0 0.0
2017-Sep-13 07:58N 37°48' W 122°17'0 0.0
2017-Sep-13 07:28N 37°48' W 122°17'0 0.0
2017-Sep-13 06:58N 37°48' W 122°17'0 0.0
2017-Sep-13 06:28N 37°48' W 122°17'0 0.0
2017-Sep-13 05:58N 37°48' W 122°17'0 0.0
2017-Sep-13 05:25N 37°48' W 122°17'0 0.0
2017-Sep-13 04:58N 37°48' W 122°17'0 0.0
2017-Sep-13 04:28N 37°48' W 122°17'0 0.0
2017-Sep-13 03:52N 37°48' W 122°17'0 0.0
2017-Sep-13 03:28N 37°48' W 122°17'0 0.0
2017-Sep-13 02:55N 37°48' W 122°17'0 0.0
2017-Sep-13 02:28N 37°48' W 122°17'0 0.0
2017-Sep-13 01:58N 37°48' W 122°17'0 0.0
2017-Sep-13 01:28N 37°48' W 122°17'0 0.0
2017-Sep-13 00:58N 37°48' W 122°17'0 0.0
2017-Sep-13 00:28N 37°48' W 122°17'0 0.0
2017-Sep-12 23:58N 37°48' W 122°17'0 0.0
2017-Sep-12 23:28N 37°48' W 122°17'0 0.0
2017-Sep-12 22:58N 37°48' W 122°17'0 0.0
2017-Sep-12 22:28N 37°48' W 122°17'0 0.0
2017-Sep-12 21:58N 37°48' W 122°17'0 0.0
2017-Sep-12 21:22N 37°48' W 122°17'0 0.0
2017-Sep-12 20:58N 37°48' W 122°17'0 0.0
2017-Sep-12 20:28N 37°48' W 122°17'0 0.0
2017-Sep-12 19:58N 37°48' W 122°17'0 0.0
2017-Sep-12 19:28N 37°48' W 122°17'0 0.0
2017-Sep-12 19:00N 37°48' W 122°17'0 0.0
2017-Sep-12 18:31N 37°48' W 122°17'0 0.0
2017-Sep-12 18:01N 37°48' W 122°17'0 0.0
2017-Sep-12 17:31N 37°48' W 122°17'0 0.0
2017-Sep-12 16:57N 37°48' W 122°17'0 0.0
2017-Sep-12 16:30N 37°48' W 122°17'0 0.0
2017-Sep-12 16:00N 37°48' W 122°17'0 0.0
2017-Sep-12 15:30N 37°48' W 122°17'0 0.0
2017-Sep-12 15:00N 37°48' W 122°17'0 0.0
2017-Sep-12 14:30N 37°48' W 122°17'0 0.0
2017-Sep-12 14:00N 37°48' W 122°17'0 0.3
2017-Sep-12 13:30N 37°48' W 122°17'0 0.0
2017-Sep-12 12:59N 37°48' W 122°17'0 0.0
2017-Sep-12 12:29N 37°48' W 122°17'0 0.0
2017-Sep-12 11:59N 37°48' W 122°17'0 0.0
2017-Sep-12 11:29N 37°48' W 122°17'0 0.0
2017-Sep-12 10:59N 37°48' W 122°17'0 0.0
2017-Sep-12 10:29N 37°48' W 122°17'0 0.0
2017-Sep-12 09:59N 37°48' W 122°17'0 0.0
2017-Sep-12 09:26N 37°48' W 122°17'0 0.0
2017-Sep-12 08:59N 37°48' W 122°17'0 0.0
2017-Sep-12 08:29N 37°48' W 122°17'0 0.0
2017-Sep-12 07:56N 37°48' W 122°17'0 0.0
2017-Sep-12 07:29N 37°48' W 122°17'0 0.0
2017-Sep-12 06:56N 37°48' W 122°17'0 0.0
2017-Sep-12 06:29N 37°48' W 122°17'0 0.0
2017-Sep-12 05:56N 37°48' W 122°17'0 0.0
2017-Sep-12 05:29N 37°48' W 122°17'0 0.0
2017-Sep-12 04:59N 37°48' W 122°17'0 0.0
2017-Sep-12 04:29N 37°48' W 122°17'0 0.0
2017-Sep-12 03:59N 37°48' W 122°17'0 0.0
2017-Sep-12 03:29N 37°48' W 122°17'0 0.0
2017-Sep-12 02:59N 37°48' W 122°17'0 0.0
2017-Sep-12 02:29N 37°48' W 122°17'0 0.0
2017-Sep-12 01:59N 37°48' W 122°17'  

Dump ship's entire track history